Nyk Olympus — 3EOS7 — position and weather

sailwx.info

Track history (hours):
 
Tides and Currents Weather Stations Pressure Air Temp Water Temp Dewpoint Dewpoint Depression Visibility Wind Speed Wind Dir Waves Ship Positions

Nyk Olympus

Last reported at 2016-Dec-02 23:31 UTC. Time now 2016-Dec-03 00:16 UTC.
Position N 01°16' E 103°50'.

Length 335 m; draft 11.5 m.

Type: Other ship. MMSI: 372478000.

Date/timePositionNaut miles runAvg speedWind from/ knotsBaromVisibWave heightAir tempDewpointWater temp
2016-Dec-02 23:31N 01°16' E 103°50'0 0.0
2016-Dec-02 22:31N 01°16' E 103°50'0 0.0
2016-Dec-02 21:31N 01°16' E 103°50'0 0.0
2016-Dec-02 20:31N 01°16' E 103°50'0 0.0
2016-Dec-02 19:31N 01°16' E 103°50'0 0.0
2016-Dec-02 18:31N 01°16' E 103°50'0 0.0
2016-Dec-02 17:31N 01°16' E 103°50'0 0.0
2016-Dec-02 16:31N 01°16' E 103°50'0 0.0
2016-Dec-02 15:31N 01°16' E 103°50'0 0.0
2016-Dec-02 14:31N 01°16' E 103°50'0 0.0
2016-Dec-02 13:31N 01°16' E 103°50'0 0.3
2016-Dec-02 12:33N 01°16' E 103°51'1 1.1
2016-Dec-02 11:33N 01°15' E 103°52'5 5.4
2016-Dec-02 10:33N 01°15' E 103°57'1510.8
2016-Dec-02 09:11N 01°17' E 104°11'  
2016-Nov-29 02:32N 22°34' E 114°16'0 0.1
2016-Nov-29 00:27N 22°34' E 114°16'0 0.0
2016-Nov-28 23:33N 22°34' E 114°16'0 0.0
2016-Nov-28 22:33N 22°34' E 114°16'0 0.0
2016-Nov-28 21:27N 22°34' E 114°16'0 0.0
2016-Nov-28 13:03N 22°34' E 114°16'0 0.0
2016-Nov-28 12:33N 22°34' E 114°16'0 0.0
2016-Nov-28 11:22N 22°34' E 114°16'0 0.0
2016-Nov-28 10:33N 22°34' E 114°16'0 0.0
2016-Nov-28 05:27N 22°34' E 114°16'0 0.0
2016-Nov-28 04:27N 22°34' E 114°16'0 0.0
2016-Nov-28 03:27N 22°34' E 114°16'0 0.0
2016-Nov-28 01:33N 22°34' E 114°16'0 0.0
2016-Nov-28 00:33N 22°34' E 114°16'1 0.9
2016-Nov-27 23:33N 22°34' E 114°16'19 2.1
2016-Nov-27 14:29N 22°18' E 114°06'3 0.2
2016-Nov-27 02:10N 22°20' E 114°07'3 0.2
2016-Nov-26 12:08N 22°18' E 114°06'14 8.7
2016-Nov-26 10:33N 22°25' E 113°53'2 2.1
2016-Nov-26 09:31N 22°27' E 113°53'0 0.0
2016-Nov-26 04:31N 22°27' E 113°53'0 0.0
2016-Nov-26 03:31N 22°27' E 113°53'0 0.0
2016-Nov-26 02:31N 22°27' E 113°53'0 0.0
2016-Nov-26 01:31N 22°27' E 113°53'2 1.9
2016-Nov-26 00:33N 22°28' E 113°52'3 0.2
2016-Nov-25 10:06N 22°31' E 113°51'5 9.6
2016-Nov-25 09:33N 22°26' E 113°53'12 9.5
2016-Nov-25 08:16N 22°20' E 114°05'32315.6
2016-Nov-24 11:33N 22°31' E 119°54'1817.7
2016-Nov-24 10:33N 22°33' E 120°13'5 5.2
2016-Nov-24 09:33N 22°34' E 120°19'0 0.1
2016-Nov-24 08:29N 22°34' E 120°18'0 0.0
2016-Nov-24 07:29N 22°34' E 120°18'0 0.0
2016-Nov-24 06:29N 22°34' E 120°18'0 0.0
2016-Nov-24 05:23N 22°34' E 120°18'0 0.0
2016-Nov-24 04:17N 22°34' E 120°18'0 0.0
2016-Nov-24 03:29N 22°34' E 120°18'0 0.0
2016-Nov-24 02:23N 22°34' E 120°18'0 0.0
2016-Nov-24 01:29N 22°34' E 120°18'0 0.0
2016-Nov-24 00:29N 22°34' E 120°18'0 0.0
2016-Nov-23 23:29N 22°34' E 120°18'0 0.0
2016-Nov-23 22:29N 22°34' E 120°18'0 0.0
2016-Nov-23 21:29N 22°34' E 120°18'0 0.0
2016-Nov-23 20:29N 22°34' E 120°18'0 0.0
2016-Nov-23 19:29N 22°34' E 120°18'0 0.0
2016-Nov-23 18:29N 22°34' E 120°18'2 1.9
2016-Nov-23 17:28N 22°33' E 120°20'2 2.3
2016-Nov-23 16:32N 22°34' E 120°18'0 0.0
2016-Nov-23 15:32N 22°34' E 120°18'0 0.1
2016-Nov-23 14:33N 22°34' E 120°18'5 5.4
2016-Nov-23 13:33N 22°32' E 120°13'1413.9
2016-Nov-23 12:33N 22°27' E 119°59'1313.2
2016-Nov-23 11:33N 22°23' E 119°46'  
Track history (hours):
 
Tides and Currents Weather Stations Pressure Air Temp Water Temp Dewpoint Dewpoint Depression Visibility Wind Speed Wind Dir Waves Ship Positions

Nyk Olympus

Last reported at 2016-Dec-02 23:31 UTC. Time now 2016-Dec-03 00:16 UTC.
Position N 01°16' E 103°50'.

Length 335 m; draft 11.5 m.

Type: Other ship. MMSI: 372478000.

Date/timePositionNaut miles runAvg speedWind from/ knotsBaromVisibWave heightAir tempDewpointWater temp
2016-Dec-02 23:31N 01°16' E 103°50'0 0.0
2016-Dec-02 22:31N 01°16' E 103°50'0 0.0
2016-Dec-02 21:31N 01°16' E 103°50'0 0.0
2016-Dec-02 20:31N 01°16' E 103°50'0 0.0
2016-Dec-02 19:31N 01°16' E 103°50'0 0.0
2016-Dec-02 18:31N 01°16' E 103°50'0 0.0
2016-Dec-02 17:31N 01°16' E 103°50'0 0.0
2016-Dec-02 16:31N 01°16' E 103°50'0 0.0
2016-Dec-02 15:31N 01°16' E 103°50'0 0.0
2016-Dec-02 14:31N 01°16' E 103°50'0 0.0
2016-Dec-02 13:31N 01°16' E 103°50'0 0.3
2016-Dec-02 12:33N 01°16' E 103°51'1 1.1
2016-Dec-02 11:33N 01°15' E 103°52'5 5.4
2016-Dec-02 10:33N 01°15' E 103°57'1510.8
2016-Dec-02 09:11N 01°17' E 104°11'  
2016-Nov-29 02:32N 22°34' E 114°16'0 0.1
2016-Nov-29 00:27N 22°34' E 114°16'0 0.0
2016-Nov-28 23:33N 22°34' E 114°16'0 0.0
2016-Nov-28 22:33N 22°34' E 114°16'0 0.0
2016-Nov-28 21:27N 22°34' E 114°16'0 0.0
2016-Nov-28 13:03N 22°34' E 114°16'0 0.0
2016-Nov-28 12:33N 22°34' E 114°16'0 0.0
2016-Nov-28 11:22N 22°34' E 114°16'0 0.0
2016-Nov-28 10:33N 22°34' E 114°16'0 0.0
2016-Nov-28 05:27N 22°34' E 114°16'0 0.0
2016-Nov-28 04:27N 22°34' E 114°16'0 0.0
2016-Nov-28 03:27N 22°34' E 114°16'0 0.0
2016-Nov-28 01:33N 22°34' E 114°16'0 0.0
2016-Nov-28 00:33N 22°34' E 114°16'1 0.9
2016-Nov-27 23:33N 22°34' E 114°16'19 2.1
2016-Nov-27 14:29N 22°18' E 114°06'3 0.2
2016-Nov-27 02:10N 22°20' E 114°07'3 0.2
2016-Nov-26 12:08N 22°18' E 114°06'14 8.7
2016-Nov-26 10:33N 22°25' E 113°53'2 2.1
2016-Nov-26 09:31N 22°27' E 113°53'0 0.0
2016-Nov-26 04:31N 22°27' E 113°53'0 0.0
2016-Nov-26 03:31N 22°27' E 113°53'0 0.0
2016-Nov-26 02:31N 22°27' E 113°53'0 0.0
2016-Nov-26 01:31N 22°27' E 113°53'2 1.9
2016-Nov-26 00:33N 22°28' E 113°52'3 0.2
2016-Nov-25 10:06N 22°31' E 113°51'5 9.6
2016-Nov-25 09:33N 22°26' E 113°53'12 9.5
2016-Nov-25 08:16N 22°20' E 114°05'32315.6
2016-Nov-24 11:33N 22°31' E 119°54'1817.7
2016-Nov-24 10:33N 22°33' E 120°13'5 5.2
2016-Nov-24 09:33N 22°34' E 120°19'0 0.1
2016-Nov-24 08:29N 22°34' E 120°18'0 0.0
2016-Nov-24 07:29N 22°34' E 120°18'0 0.0
2016-Nov-24 06:29N 22°34' E 120°18'0 0.0
2016-Nov-24 05:23N 22°34' E 120°18'0 0.0
2016-Nov-24 04:17N 22°34' E 120°18'0 0.0
2016-Nov-24 03:29N 22°34' E 120°18'0 0.0
2016-Nov-24 02:23N 22°34' E 120°18'0 0.0
2016-Nov-24 01:29N 22°34' E 120°18'0 0.0
2016-Nov-24 00:29N 22°34' E 120°18'0 0.0
2016-Nov-23 23:29N 22°34' E 120°18'0 0.0
2016-Nov-23 22:29N 22°34' E 120°18'0 0.0
2016-Nov-23 21:29N 22°34' E 120°18'0 0.0
2016-Nov-23 20:29N 22°34' E 120°18'0 0.0
2016-Nov-23 19:29N 22°34' E 120°18'0 0.0
2016-Nov-23 18:29N 22°34' E 120°18'2 1.9
2016-Nov-23 17:28N 22°33' E 120°20'2 2.3
2016-Nov-23 16:32N 22°34' E 120°18'0 0.0
2016-Nov-23 15:32N 22°34' E 120°18'0 0.1
2016-Nov-23 14:33N 22°34' E 120°18'5 5.4
2016-Nov-23 13:33N 22°32' E 120°13'1413.9
2016-Nov-23 12:33N 22°27' E 119°59'1313.2
2016-Nov-23 11:33N 22°23' E 119°46'  

Dump ship's entire track history